createdAt,value
2022-12-19T00:01:35.247Z,68.67
2022-12-19T00:04:08.372Z,69.44
2022-12-19T00:06:37.288Z,69.45
2022-12-19T00:09:04.826Z,68.72
2022-12-19T00:11:32.382Z,69.43
2022-12-19T00:13:59.812Z,69.27
2022-12-19T00:16:29.496Z,69.44
2022-12-19T00:18:59.085Z,69.33
2022-12-19T00:21:29.228Z,70.28
2022-12-19T00:23:56.163Z,69.97
2022-12-19T00:26:26.998Z,69.99
2022-12-19T00:28:57.080Z,69.80
2022-12-19T00:31:24.590Z,69.42
2022-12-19T00:33:51.237Z,69.03
2022-12-19T00:36:23.663Z,69.62
2022-12-19T00:38:51.762Z,69.92
2022-12-19T00:41:35.659Z,68.96
2022-12-19T00:44:07.646Z,68.78
2022-12-19T00:46:35.331Z,68.64
2022-12-19T00:49:02.931Z,67.94
2022-12-19T00:51:33.757Z,67.43
2022-12-19T00:54:00.412Z,67.99
2022-12-19T00:56:31.688Z,67.46
2022-12-19T00:59:02.603Z,67.93
2022-12-19T01:01:38.414Z,67.93
2022-12-19T01:06:53.338Z,67.74
2022-12-19T01:09:21.761Z,67.83
2022-12-19T01:12:06.662Z,67.73
2022-12-19T01:14:33.226Z,67.81
2022-12-19T01:16:59.691Z,67.30
2022-12-19T01:19:27.283Z,67.88
2022-12-19T01:21:53.859Z,67.65
2022-12-19T01:24:21.011Z,67.20
2022-12-19T01:26:47.492Z,67.58
2022-12-19T01:29:14.053Z,67.14
2022-12-19T01:31:40.572Z,67.65
2022-12-19T01:34:07.155Z,67.28
2022-12-19T01:36:34.957Z,66.90
2022-12-19T01:39:06.473Z,67.39
2022-12-19T01:41:33.117Z,67.91
2022-12-19T01:44:05.880Z,68.34
2022-12-19T01:46:39.948Z,68.99
2022-12-19T01:49:15.368Z,68.82
2022-12-19T01:51:47.091Z,68.28
2022-12-19T01:54:21.947Z,67.91
2022-12-19T01:56:55.782Z,68.04
2022-12-19T01:59:32.339Z,67.85
2022-12-19T02:02:08.111Z,68.59
2022-12-19T02:04:35.117Z,68.43
2022-12-19T02:07:24.015Z,67.82
2022-12-19T02:09:57.192Z,68.00
2022-12-19T02:12:26.083Z,68.15
2022-12-19T02:14:56.168Z,68.17
2022-12-19T02:17:42.746Z,67.99
2022-12-19T02:20:49.245Z,67.59
2022-12-19T02:23:28.873Z,67.86
2022-12-19T02:26:04.380Z,67.86
2022-12-19T02:28:33.640Z,68.37
2022-12-19T02:31:26.406Z,67.92
2022-12-19T02:34:18.959Z,68.46
2022-12-19T02:37:02.166Z,68.19
2022-12-19T02:39:41.216Z,68.17
2022-12-19T02:42:11.421Z,67.92
2022-12-19T02:44:51.655Z,68.68
2022-12-19T02:47:20.251Z,68.63
2022-12-19T02:49:46.828Z,68.70
2022-12-19T02:52:19.148Z,69.08
2022-12-19T02:54:48.036Z,69.49
2022-12-19T02:57:28.511Z,68.53
2022-12-19T02:59:55.262Z,68.70
2022-12-19T03:02:57.898Z,68.59
2022-12-19T03:05:33.818Z,67.86
2022-12-19T03:08:06.122Z,68.29
2022-12-19T03:10:53.342Z,68.18
2022-12-19T03:13:37.527Z,68.59
2022-12-19T03:16:07.167Z,68.04
2022-12-19T03:18:34.132Z,68.47
2022-12-19T03:21:37.847Z,69.23
2022-12-19T03:24:06.892Z,69.08
2022-12-19T03:26:48.288Z,68.82
2022-12-19T03:29:17.868Z,69.19
2022-12-19T03:31:46.411Z,68.92
2022-12-19T03:34:24.866Z,68.36
2022-12-19T03:36:59.605Z,68.96
2022-12-19T03:39:27.037Z,68.39
2022-12-19T03:42:13.401Z,68.52
2022-12-19T03:44:42.721Z,68.69
2022-12-19T03:47:22.485Z,68.72
2022-12-19T03:49:49.743Z,67.90
2022-12-19T03:52:26.787Z,68.13
2022-12-19T03:55:06.244Z,68.07
2022-12-19T03:58:05.687Z,68.77
2022-12-19T04:00:36.512Z,69.01
2022-12-19T04:03:04.568Z,68.35
2022-12-19T04:05:32.452Z,68.69
2022-12-19T04:08:04.767Z,68.92
2022-12-19T04:10:38.313Z,68.73
2022-12-19T04:13:12.072Z,68.29
2022-12-19T04:16:13.323Z,67.54
2022-12-19T04:18:45.312Z,68.01
2022-12-19T04:21:19.038Z,68.63
2022-12-19T04:23:52.788Z,68.58
2022-12-19T04:26:21.358Z,68.79
2022-12-19T04:28:56.327Z,68.56
2022-12-19T04:31:23.463Z,68.71
2022-12-19T04:33:50.051Z,68.26
2022-12-19T04:36:16.638Z,68.93
2022-12-19T04:38:43.138Z,68.77
2022-12-19T04:41:09.628Z,68.10
2022-12-19T04:43:36.160Z,68.36
2022-12-19T04:46:02.838Z,68.26
2022-12-19T04:48:29.371Z,68.45
2022-12-19T04:50:56.433Z,68.41
2022-12-19T04:53:24.511Z,69.20
2022-12-19T04:55:50.984Z,69.49
2022-12-19T04:58:21.909Z,68.44
2022-12-19T05:00:48.609Z,69.18
2022-12-19T05:03:15.078Z,69.35
2022-12-19T05:05:41.573Z,68.46
2022-12-19T05:08:08.766Z,68.76
2022-12-19T05:10:36.543Z,68.57
2022-12-19T05:13:03.092Z,69.23
2022-12-19T05:15:29.656Z,69.79
2022-12-19T05:17:57.711Z,68.81
2022-12-19T05:20:24.305Z,69.63
2022-12-19T05:22:50.782Z,70.09
2022-12-19T05:25:17.214Z,69.84
2022-12-19T05:27:43.680Z,68.44
2022-12-19T05:30:10.723Z,69.45
2022-12-19T05:32:37.246Z,69.05
2022-12-19T05:35:04.234Z,69.31
2022-12-19T05:37:30.655Z,69.48
2022-12-19T05:39:57.121Z,69.45
2022-12-19T05:42:26.231Z,70.06
2022-12-19T05:44:52.653Z,69.64
2022-12-19T05:47:22.201Z,69.40
2022-12-19T05:49:48.633Z,69.07
2022-12-19T05:52:15.043Z,69.92
2022-12-19T05:54:41.456Z,69.46
2022-12-19T05:57:07.904Z,69.07
2022-12-19T05:59:34.370Z,69.42
2022-12-19T06:02:00.909Z,68.99
2022-12-19T06:04:27.500Z,69.79
2022-12-19T06:06:54.335Z,68.74
2022-12-19T06:09:20.865Z,69.54
2022-12-19T06:11:47.999Z,69.02
2022-12-19T06:14:14.501Z,69.36
2022-12-19T06:16:41.062Z,68.89
2022-12-19T06:19:07.544Z,69.05
2022-12-19T06:21:34.104Z,68.64
2022-12-19T06:24:00.540Z,68.49
2022-12-19T06:26:27.324Z,68.04
2022-12-19T06:28:55.591Z,68.23
2022-12-19T06:31:24.827Z,68.68
2022-12-19T06:33:52.080Z,69.10
2022-12-19T06:36:25.679Z,68.69
2022-12-19T06:38:53.658Z,68.87
2022-12-19T06:41:39.042Z,68.71
2022-12-19T06:44:07.795Z,68.79
2022-12-19T06:46:35.402Z,68.39
2022-12-19T06:49:01.894Z,67.76
2022-12-19T06:51:28.808Z,68.10
2022-12-19T06:53:55.556Z,67.25
2022-12-19T06:56:22.665Z,67.58
2022-12-19T06:58:49.833Z,67.22
2022-12-19T07:01:21.113Z,66.93
2022-12-19T07:04:11.620Z,66.82
2022-12-19T07:06:51.639Z,66.21
2022-12-19T07:09:33.544Z,66.20
2022-12-19T07:12:01.711Z,66.35
2022-12-19T07:14:40.018Z,65.85
2022-12-19T07:17:12.904Z,66.20
2022-12-19T07:19:58.846Z,65.82
2022-12-19T07:23:57.453Z,65.94
2022-12-19T07:26:31.193Z,65.25
2022-12-19T07:31:46.710Z,64.68
2022-12-19T07:34:22.206Z,65.32
2022-12-19T07:37:01.165Z,65.13
2022-12-19T07:39:49.600Z,65.45
2022-12-19T07:42:32.818Z,64.40
2022-12-19T07:45:08.885Z,64.52
2022-12-19T07:47:41.162Z,63.90
2022-12-19T07:50:17.715Z,64.26
2022-12-19T07:52:44.690Z,63.89
2022-12-19T07:55:12.765Z,63.74
2022-12-19T07:57:41.138Z,64.39
2022-12-19T08:00:09.420Z,63.36
2022-12-19T08:02:36.653Z,64.21
2022-12-19T08:05:07.061Z,63.69
2022-12-19T08:07:34.354Z,64.03
2022-12-19T08:10:01.538Z,63.94
2022-12-19T08:12:28.327Z,63.71
2022-12-19T08:14:58.768Z,63.87
2022-12-19T08:17:26.583Z,63.64
2022-12-19T08:19:53.714Z,63.30
2022-12-19T08:22:20.648Z,62.47
2022-12-19T08:24:47.675Z,63.00
2022-12-19T08:27:16.999Z,63.13
2022-12-19T08:29:43.988Z,62.53
2022-12-19T08:32:18.775Z,62.58
2022-12-19T08:34:58.019Z,61.83
2022-12-19T08:37:33.849Z,61.53
2022-12-19T08:40:02.915Z,62.06
2022-12-19T08:42:35.450Z,61.55
2022-12-19T08:45:02.765Z,61.71
2022-12-19T08:47:29.741Z,62.01
2022-12-19T08:49:57.023Z,62.11
2022-12-19T08:52:23.968Z,62.20
2022-12-19T08:54:50.920Z,61.72
2022-12-19T08:57:17.707Z,62.00
2022-12-19T08:59:44.873Z,61.81
2022-12-19T09:02:18.715Z,62.19
2022-12-19T09:05:59.258Z,61.42
2022-12-19T09:07:32.538Z,61.56
2022-12-19T09:10:08.166Z,62.14
2022-12-19T09:12:35.520Z,62.13
2022-12-19T09:15:02.314Z,61.44
2022-12-19T09:17:29.210Z,60.94
2022-12-19T09:19:56.784Z,61.74
2022-12-19T09:22:29.848Z,61.86
2022-12-19T09:25:08.063Z,61.47
2022-12-19T09:27:53.708Z,61.13
2022-12-19T09:30:39.396Z,60.69
2022-12-19T09:33:07.474Z,60.93
2022-12-19T09:35:36.088Z,61.10
2022-12-19T09:38:03.776Z,60.92
2022-12-19T09:40:43.742Z,61.43
2022-12-19T09:43:33.994Z,61.08
2022-12-19T09:46:33.235Z,60.93
2022-12-19T09:49:10.528Z,61.19
2022-12-19T09:52:06.355Z,60.93
2022-12-19T09:54:41.793Z,61.17
2022-12-19T09:57:16.861Z,60.96
2022-12-19T10:00:02.642Z,60.63
2022-12-19T10:02:49.173Z,61.31
2022-12-19T10:05:49.612Z,60.84
2022-12-19T10:09:51.332Z,61.17
2022-12-19T10:12:40.546Z,60.27
2022-12-19T10:14:53.622Z,60.04
2022-12-19T10:17:28.395Z,60.44
2022-12-19T10:20:25.617Z,60.33
2022-12-19T10:22:58.282Z,60.81
2022-12-19T10:25:40.283Z,59.90
2022-12-19T10:28:19.728Z,60.37
2022-12-19T10:31:09.888Z,59.67
2022-12-19T10:34:15.141Z,59.81
2022-12-19T10:39:46.060Z,59.00
2022-12-19T10:42:28.490Z,59.14
2022-12-19T10:45:11.278Z,59.07
2022-12-19T10:47:38.712Z,59.52
2022-12-19T10:50:09.724Z,58.97
2022-12-19T10:53:11.909Z,58.48
2022-12-19T10:56:13.314Z,58.29
2022-12-19T10:59:03.163Z,58.57
2022-12-19T11:01:41.773Z,58.87
2022-12-19T11:04:38.735Z,58.45
2022-12-19T11:07:27.947Z,58.66
2022-12-19T11:11:00.714Z,58.59
2022-12-19T11:17:11.732Z,58.43
2022-12-19T11:17:59.354Z,58.66
2022-12-19T11:29:37.272Z,59.81
2022-12-19T11:29:41.501Z,58.61
2022-12-19T11:30:35.541Z,60.93
2022-12-19T11:30:35.803Z,59.98
2022-12-19T11:33:28.340Z,61.29
2022-12-19T11:36:09.237Z,62.25
2022-12-19T11:38:54.495Z,63.81
2022-12-19T11:42:02.051Z,63.62
2022-12-19T11:45:07.703Z,65.03
2022-12-19T11:47:49.844Z,65.35
2022-12-19T11:50:28.283Z,65.58
2022-12-19T11:53:30.987Z,66.55
2022-12-19T11:56:22.094Z,66.50
2022-12-19T11:58:53.397Z,67.27
2022-12-19T12:01:41.950Z,68.21
2022-12-19T12:04:39.328Z,68.55
2022-12-19T12:07:16.923Z,68.86
2022-12-19T12:15:38.332Z,69.65
2022-12-19T12:23:05.699Z,69.92
2022-12-19T12:31:16.425Z,71.88
2022-12-19T12:31:18.382Z,70.87
2022-12-19T12:31:23.832Z,72.40
2022-12-19T12:31:49.895Z,73.98
2022-12-19T12:32:00.574Z,74.45
2022-12-19T12:35:56.478Z,75.05
2022-12-19T12:38:54.277Z,76.09
2022-12-19T12:41:54.456Z,76.75
2022-12-19T12:44:33.164Z,77.02
2022-12-19T12:47:17.043Z,77.40
2022-12-19T12:49:51.844Z,77.67
2022-12-19T12:52:23.888Z,78.24
2022-12-19T12:54:53.204Z,78.41
2022-12-19T12:57:28.953Z,78.41
2022-12-19T13:00:15.369Z,78.17
2022-12-19T13:02:45.935Z,79.09
2022-12-19T13:05:32.130Z,79.08
2022-12-19T13:07:59.007Z,79.42
2022-12-19T13:10:31.036Z,79.86
2022-12-19T13:13:01.779Z,80.22
2022-12-19T13:18:32.899Z,80.87
2022-12-19T13:21:01.607Z,80.59
2022-12-19T13:23:37.080Z,81.43
2022-12-19T13:26:04.724Z,81.31
2022-12-19T13:28:31.661Z,80.92
2022-12-19T13:31:18.600Z,81.40
2022-12-19T13:33:55.628Z,81.10
2022-12-19T13:39:57.595Z,81.80
2022-12-19T13:39:58.100Z,81.36
2022-12-19T13:43:09.571Z,81.46
2022-12-19T13:45:39.909Z,81.53
2022-12-19T13:48:16.419Z,81.20
2022-12-19T13:50:50.079Z,82.32
2022-12-19T13:53:19.168Z,82.45
2022-12-19T13:55:46.175Z,82.39
2022-12-19T13:58:29.285Z,82.17
2022-12-19T14:01:01.394Z,82.11
2022-12-19T14:03:39.039Z,82.18
2022-12-19T14:06:28.240Z,82.69
2022-12-19T14:11:23.189Z,82.43
2022-12-19T14:13:50.931Z,82.94
2022-12-19T14:15:40.880Z,82.60
2022-12-19T14:18:42.426Z,82.65
2022-12-19T14:22:10.608Z,83.28
2022-12-19T14:24:22.450Z,83.28
2022-12-19T14:28:25.853Z,83.72
2022-12-19T14:30:31.084Z,83.49
2022-12-19T14:33:43.933Z,83.47
2022-12-19T14:36:07.091Z,83.58
2022-12-19T14:39:24.039Z,83.35
2022-12-19T14:41:42.193Z,83.37
2022-12-19T14:52:34.525Z,83.54
2022-12-19T14:54:05.507Z,83.29
2022-12-19T14:54:16.484Z,83.14
2022-12-19T14:54:40.844Z,83.50
2022-12-19T14:56:09.697Z,83.34
2022-12-19T14:58:53.835Z,83.96
2022-12-19T15:01:28.499Z,83.55
2022-12-19T15:04:53.369Z,83.90
2022-12-19T15:07:11.818Z,84.20
2022-12-19T15:11:08.133Z,84.39
2022-12-19T15:14:55.304Z,84.30
2022-12-19T15:16:26.957Z,84.24
2022-12-19T15:19:00.530Z,84.07
2022-12-19T15:21:29.502Z,84.24
2022-12-19T15:23:56.158Z,84.31
2022-12-19T15:26:34.591Z,84.13
2022-12-19T15:29:02.961Z,83.85
2022-12-19T15:31:38.552Z,84.12
2022-12-19T15:34:48.211Z,83.88
2022-12-19T15:37:14.624Z,83.65
2022-12-19T15:39:41.682Z,83.96
2022-12-19T15:42:21.555Z,84.04
2022-12-19T15:44:49.034Z,84.13
2022-12-19T15:47:28.431Z,83.99
2022-12-19T15:49:55.140Z,84.06
2022-12-19T15:52:22.003Z,84.41
2022-12-19T15:54:50.565Z,84.23
2022-12-19T15:57:36.537Z,83.94
2022-12-19T16:00:12.910Z,84.53
2022-12-19T16:05:29.099Z,84.19
2022-12-19T16:07:58.853Z,84.93
2022-12-19T16:10:26.323Z,83.92
2022-12-19T16:12:55.649Z,84.42
2022-12-19T16:15:27.671Z,84.66
2022-12-19T16:17:55.537Z,84.41
2022-12-19T16:20:28.354Z,84.05
2022-12-19T16:22:57.903Z,84.45
2022-12-19T16:25:31.404Z,83.69
2022-12-19T16:27:59.452Z,84.12
2022-12-19T16:30:31.548Z,84.04
2022-12-19T16:32:58.494Z,83.85
2022-12-19T16:35:55.089Z,83.96
2022-12-19T16:38:14.461Z,84.12
2022-12-19T16:40:41.608Z,84.39
2022-12-19T16:43:15.736Z,84.17
2022-12-19T16:45:43.198Z,84.27
2022-12-19T16:48:21.984Z,84.21
2022-12-19T16:50:49.655Z,84.34
2022-12-19T16:53:17.213Z,84.17
2022-12-19T16:55:45.623Z,84.31
2022-12-19T16:58:18.916Z,84.23
2022-12-19T17:00:46.033Z,84.39
2022-12-19T17:03:41.159Z,84.38
2022-12-19T17:06:26.690Z,84.65
2022-12-19T17:08:53.312Z,84.24
2022-12-19T17:11:26.001Z,84.02
2022-12-19T17:14:08.532Z,84.55
2022-12-19T17:16:35.331Z,84.35
2022-12-19T17:19:02.753Z,84.50
2022-12-19T17:21:32.585Z,84.36
2022-12-19T17:23:59.126Z,84.53
2022-12-19T17:26:25.681Z,84.03
2022-12-19T17:28:53.141Z,84.29
2022-12-19T17:31:27.925Z,84.56
2022-12-19T17:33:57.670Z,84.69
2022-12-19T17:36:32.655Z,84.34
2022-12-19T17:39:01.622Z,84.39
2022-12-19T17:41:28.175Z,84.31
2022-12-19T17:43:54.668Z,84.33
2022-12-19T17:46:24.022Z,84.62
2022-12-19T17:48:52.810Z,84.54
2022-12-19T17:51:21.435Z,84.81
2022-12-19T17:53:49.774Z,84.78
2022-12-19T17:56:18.193Z,84.49
2022-12-19T17:58:44.731Z,84.67
2022-12-19T18:01:23.523Z,84.17
2022-12-19T18:03:52.266Z,84.90
2022-12-19T18:06:19.091Z,84.75
2022-12-19T18:08:45.580Z,84.66
2022-12-19T18:11:24.526Z,84.72
2022-12-19T18:13:51.732Z,84.79
2022-12-19T18:16:22.327Z,84.84
2022-12-19T18:18:49.062Z,84.82
2022-12-19T18:21:18.863Z,84.67
2022-12-19T18:23:45.644Z,84.16
2022-12-19T18:26:13.081Z,84.69
2022-12-19T18:28:40.398Z,84.57
2022-12-19T18:31:13.109Z,84.82
2022-12-19T18:33:41.986Z,84.71
2022-12-19T18:36:17.120Z,84.73
2022-12-19T18:38:43.609Z,84.77
2022-12-19T18:41:11.918Z,84.63
2022-12-19T18:43:38.345Z,84.49
2022-12-19T18:46:05.784Z,84.55
2022-12-19T18:48:36.866Z,85.00
2022-12-19T18:51:04.922Z,84.59
2022-12-19T18:53:35.207Z,85.04
2022-12-19T18:56:04.480Z,85.12
2022-12-19T18:58:31.304Z,84.16
2022-12-19T19:01:00.401Z,84.06
2022-12-19T19:03:33.678Z,84.19
2022-12-19T19:06:00.971Z,84.10
2022-12-19T19:08:30.775Z,84.05
2022-12-19T19:10:57.507Z,84.02
2022-12-19T19:13:25.704Z,84.15
2022-12-19T19:15:53.673Z,84.17
2022-12-19T19:18:30.001Z,83.61
2022-12-19T19:21:01.007Z,84.02
2022-12-19T19:23:33.451Z,84.23
2022-12-19T19:26:00.067Z,83.32
2022-12-19T19:28:26.526Z,84.00
2022-12-19T19:30:54.626Z,84.15
2022-12-19T19:33:25.782Z,83.84
2022-12-19T19:35:58.665Z,83.43
2022-12-19T19:38:25.193Z,83.48
2022-12-19T19:40:51.660Z,83.21
2022-12-19T19:43:18.176Z,83.96
2022-12-19T19:45:44.718Z,84.29
2022-12-19T19:48:11.166Z,83.58
2022-12-19T19:50:38.213Z,83.60
2022-12-19T19:53:05.163Z,83.93
2022-12-19T19:55:31.722Z,83.75
2022-12-19T19:57:58.345Z,84.15
2022-12-19T20:00:25.264Z,83.83
2022-12-19T20:02:53.016Z,83.37
2022-12-19T20:05:19.747Z,83.88
2022-12-19T20:07:46.363Z,83.39
2022-12-19T20:10:12.967Z,83.54
2022-12-19T20:12:39.547Z,83.06
2022-12-19T20:15:06.606Z,82.95
2022-12-19T20:17:33.120Z,83.40
2022-12-19T20:19:59.710Z,83.35
2022-12-19T20:22:26.332Z,83.29
2022-12-19T20:24:53.926Z,83.54
2022-12-19T20:27:20.566Z,82.80
2022-12-19T20:29:46.952Z,82.95
2022-12-19T20:32:15.004Z,83.00
2022-12-19T20:34:41.486Z,82.43
2022-12-19T20:37:08.027Z,82.16
2022-12-19T20:39:34.600Z,82.39
2022-12-19T20:42:01.130Z,82.29
2022-12-19T20:44:29.007Z,82.47
2022-12-19T20:46:55.574Z,82.08
2022-12-19T20:49:23.430Z,82.51
2022-12-19T20:51:50.048Z,82.04
2022-12-19T20:54:16.789Z,81.63
2022-12-19T20:56:43.231Z,81.53
2022-12-19T20:59:10.365Z,81.41
2022-12-19T21:01:37.606Z,81.68
2022-12-19T21:04:05.166Z,81.50
2022-12-19T21:06:31.901Z,81.01
2022-12-19T21:08:58.417Z,80.87
2022-12-19T21:11:26.538Z,80.99
2022-12-19T21:13:53.318Z,81.55
2022-12-19T21:16:22.106Z,81.33
2022-12-19T21:18:50.957Z,81.58
2022-12-19T21:21:20.898Z,81.24
2022-12-19T21:23:47.505Z,81.04
2022-12-19T21:26:14.126Z,80.91
2022-12-19T21:28:40.777Z,80.59
2022-12-19T21:31:20.023Z,80.84
2022-12-19T21:33:47.888Z,81.06
2022-12-19T21:36:20.341Z,80.96
2022-12-19T21:38:49.013Z,80.82
2022-12-19T21:41:19.340Z,80.71
2022-12-19T21:43:47.596Z,81.11
2022-12-19T21:46:16.036Z,80.59
2022-12-19T21:48:44.845Z,80.20
2022-12-19T21:51:12.626Z,79.66
2022-12-19T21:53:39.877Z,80.23
2022-12-19T21:56:15.326Z,79.90
2022-12-19T21:58:41.792Z,80.23
2022-12-19T22:01:11.186Z,80.17
2022-12-19T22:03:39.038Z,80.38
2022-12-19T22:06:08.775Z,79.94
2022-12-19T22:08:36.387Z,80.00
2022-12-19T22:11:03.044Z,80.61
2022-12-19T22:13:30.111Z,80.66
2022-12-19T22:16:01.734Z,80.45
2022-12-19T22:18:28.263Z,80.63
2022-12-19T22:21:01.075Z,80.35
2022-12-19T22:23:27.997Z,80.13
2022-12-19T22:26:07.024Z,80.52
2022-12-19T22:28:36.625Z,80.04
2022-12-19T22:31:04.287Z,80.52
2022-12-19T22:33:30.957Z,80.24
2022-12-19T22:35:57.426Z,80.71
2022-12-19T22:38:23.889Z,79.96
2022-12-19T22:40:50.458Z,80.33
2022-12-19T22:43:16.907Z,80.04
2022-12-19T22:45:43.389Z,79.95
2022-12-19T22:48:09.899Z,79.67
2022-12-19T22:50:36.749Z,79.86
2022-12-19T22:53:05.923Z,79.76
2022-12-19T22:55:34.725Z,79.74
2022-12-19T22:58:01.641Z,79.06
2022-12-19T23:00:28.143Z,79.21
2022-12-19T23:02:54.725Z,79.07
2022-12-19T23:05:21.356Z,79.54
2022-12-19T23:07:47.912Z,79.52
2022-12-19T23:10:14.383Z,79.26
2022-12-19T23:12:41.064Z,79.32
2022-12-19T23:15:07.958Z,79.20
2022-12-19T23:17:34.542Z,79.09
2022-12-19T23:20:01.055Z,78.69
2022-12-19T23:22:27.817Z,79.21
2022-12-19T23:24:54.338Z,79.07
2022-12-19T23:27:20.796Z,78.55
2022-12-19T23:29:49.301Z,78.94
2022-12-19T23:32:16.090Z,79.24
2022-12-19T23:34:42.778Z,79.02
2022-12-19T23:37:11.113Z,78.55
2022-12-19T23:39:38.242Z,78.54
2022-12-19T23:42:04.807Z,78.54
2022-12-19T23:44:31.405Z,78.52
2022-12-19T23:47:03.012Z,78.70
2022-12-19T23:49:30.246Z,78.52
2022-12-19T23:51:56.834Z,78.74
2022-12-19T23:54:23.320Z,78.24
2022-12-19T23:56:49.851Z,78.17
2022-12-19T23:59:16.333Z,77.86
